aviador You're here:

ZYTX Decoded Metar

SHENYANG/TAOKIAN in CHINA
Report Time2017-08-23 02:00:00
UTC Time2017-08-23 02:16:57
Flight Rules vfr VFR
WindVRB at 2 kt
Visibility9999 m
Phenomena:Light Rain
Clouds:Overcast 040 Hf
Expected CloudBase > 800 ft AGL from Temp-Dew spread
Ceiling4,000 ft
Temp25°C (ISA +10)
Dew Point23°C (89% RH)
QNH1008 hPa
Density Alt1,837 ft
Elevation115 ft
Report Wrong Elevation
Raw Report
ZYTX 230200Z VRB01MPS 9999 -RA OVC040 25/23 Q1008 NOSIG=

Extra information for ZYTX:More info

Metar Taf Metar & Taf Last 4 Metars F.Rules Stats Wind Profile Meteogram Temp Stats Airport Information Weather charts Add Link Nearby VenuesMetar ALERT Operation Metar Decoded Social comments